Main page
METAR-TAF:

METAR-TAF

Airports :

Stockholm Bromma Airport

Stockholm, Sweden

latitude: 59-21N, longitude: 017-57E, elevation: 14 m

Current weather observation

The report was made 32 minutes ago, at 21:20 UTC
Wind 16 kt from the Southwest, varying between South/Southwest and West
Temperature 7°C
Humidity 70%
Pressure 988 hPa
Visibility 10 km or more

METAR: ESSB 172120Z AUTO 23016KT 200V260 9999 OVC032/// 07/02 Q0988

Time: 22:52 (21:52 UTC)

Forecast

The report was made 4 hours and 22 minutes ago, at 17:30 UTC
Forecast valid from 17 at 18 UTC to 17 at 21 UTC
Wind 16 kt from the Southwest with gusts up to 27 kt
Visibility 10 km or more
Broken clouds at a height of 2800 ft

TAF: ESSB 171730Z 1718/1721 23016G27KT 9999 BKN028

Weather observations and forecasts of more than 4000 airports (METAR and TAF reports).

The available stations are represented by yellow and red dots on the map.

Hover mouse over dot to see the name of the station.

Then click to see weather observations and forecasts.

To change the map : click on the green buttons with a black cross to zoom in, on the green button with a dash to zoom out, or on the green arrows for adjacent maps.


METAR-TAF: